createdAt,value
2018-04-22T00:00:50.820Z,80.30
2018-04-22T00:03:19.875Z,81.10
2018-04-22T00:05:48.367Z,81.10
2018-04-22T00:08:16.647Z,81.60
2018-04-22T00:10:44.920Z,81.50
2018-04-22T00:13:14.118Z,80.80
2018-04-22T00:15:43.167Z,81.10
2018-04-22T00:18:11.467Z,81.00
2018-04-22T00:20:39.804Z,81.00
2018-04-22T00:23:08.904Z,81.60
2018-04-22T00:25:37.189Z,81.60
2018-04-22T00:28:05.465Z,82.80
2018-04-22T00:30:33.792Z,83.20
2018-04-22T00:33:02.878Z,83.10
2018-04-22T00:35:31.252Z,83.00
2018-04-22T00:37:59.532Z,83.30
2018-04-22T00:40:27.817Z,83.60
2018-04-22T00:42:56.341Z,84.00
2018-04-22T00:45:24.652Z,83.80
2018-04-22T00:47:53.723Z,83.50
2018-04-22T00:50:22.210Z,82.80
2018-04-22T00:52:50.497Z,82.50
2018-04-22T00:55:18.773Z,83.10
2018-04-22T00:57:47.232Z,83.20
2018-04-22T01:00:15.513Z,82.60
2018-04-22T01:02:44.609Z,83.00
2018-04-22T01:05:12.896Z,82.90
2018-04-22T01:07:42.005Z,83.40
2018-04-22T01:10:10.373Z,83.40
2018-04-22T01:12:38.657Z,83.30
2018-04-22T01:15:06.932Z,83.80
2018-04-22T01:17:35.261Z,83.50
2018-04-22T01:20:03.629Z,83.70
2018-04-22T01:22:32.232Z,84.20
2018-04-22T01:25:00.513Z,83.40
2018-04-22T01:27:28.792Z,83.30
2018-04-22T01:29:57.126Z,82.80
2018-04-22T01:32:26.169Z,84.50
2018-04-22T01:34:54.631Z,84.40
2018-04-22T01:37:22.929Z,84.90
2018-04-22T01:39:52.320Z,85.80
2018-04-22T01:42:21.378Z,86.20
2018-04-22T01:44:49.665Z,85.40
2018-04-22T01:47:17.989Z,85.40
2018-04-22T01:49:46.308Z,84.60
2018-04-22T01:52:15.353Z,85.70
2018-04-22T01:54:43.681Z,85.70
2018-04-22T01:57:12.021Z,86.70
2018-04-22T01:59:40.661Z,87.10
2018-04-22T02:02:08.944Z,87.10
2018-04-22T02:04:37.228Z,86.80
2018-04-22T02:07:05.565Z,86.60
2018-04-22T02:09:34.929Z,86.20
2018-04-22T02:12:03.760Z,86.10
2018-04-22T02:14:32.048Z,86.30
2018-04-22T02:17:01.149Z,87.00
2018-04-22T02:19:29.536Z,86.90
2018-04-22T02:21:58.020Z,87.60
2018-04-22T02:24:26.649Z,88.30
2018-04-22T02:26:55.715Z,88.40
2018-04-22T02:29:24.041Z,88.30
2018-04-22T02:31:53.187Z,88.00
2018-04-22T02:34:21.629Z,87.90
2018-04-22T02:36:50.688Z,87.30
2018-04-22T02:39:19.027Z,86.40
2018-04-22T02:41:47.349Z,86.40
2018-04-22T02:44:16.446Z,87.50
2018-04-22T02:46:45.525Z,87.60
2018-04-22T02:49:13.813Z,87.50
2018-04-22T02:51:42.149Z,88.50
2018-04-22T02:54:10.489Z,89.00
2018-04-22T02:56:38.832Z,89.20
2018-04-22T02:59:07.169Z,88.70
2018-04-22T03:01:35.565Z,88.50
2018-04-22T03:04:03.901Z,88.10
2018-04-22T03:06:32.256Z,88.60
2018-04-22T03:09:02.053Z,88.80
2018-04-22T03:11:30.389Z,88.80
2018-04-22T03:13:59.444Z,89.00
2018-04-22T03:16:28.061Z,89.00
2018-04-22T03:18:56.375Z,89.40
2018-04-22T03:21:25.555Z,88.80
2018-04-22T03:23:53.915Z,88.80
2018-04-22T03:26:22.212Z,88.50
2018-04-22T03:28:50.841Z,88.30
2018-04-22T03:31:19.125Z,88.30
2018-04-22T03:33:47.406Z,86.90
2018-04-22T03:36:15.728Z,86.70
2018-04-22T03:38:44.777Z,87.50
2018-04-22T03:41:13.097Z,87.50
2018-04-22T03:43:41.382Z,88.00
2018-04-22T03:46:09.705Z,88.40
2018-04-22T03:48:37.988Z,89.40
2018-04-22T03:51:06.321Z,89.50
2018-04-22T03:53:34.606Z,89.30
2018-04-22T03:56:02.940Z,88.60
2018-04-22T03:58:33.077Z,88.80
2018-04-22T04:01:01.773Z,88.70
2018-04-22T04:03:30.171Z,89.50
2018-04-22T04:05:58.453Z,89.60
2018-04-22T04:08:26.924Z,89.50
2018-04-22T04:10:55.281Z,89.60
2018-04-22T04:13:23.587Z,89.20
2018-04-22T04:15:51.946Z,88.00
2018-04-22T04:21:43.856Z,87.90
2018-04-22T04:27:47.077Z,88.50
2018-04-22T04:30:16.181Z,88.90
2018-04-22T04:32:45.269Z,88.40
2018-04-22T04:35:13.649Z,88.30
2018-04-22T04:37:41.937Z,88.50
2018-04-22T04:40:10.217Z,88.80
2018-04-22T04:42:38.544Z,88.80
2018-04-22T04:45:07.641Z,89.00
2018-04-22T04:47:35.970Z,88.90
2018-04-22T04:50:04.254Z,88.60
2018-04-22T04:52:32.589Z,87.90
2018-04-22T04:55:00.912Z,87.50
2018-04-22T04:57:29.993Z,88.30
2018-04-22T04:59:58.337Z,88.20
2018-04-22T05:02:26.685Z,88.00
2018-04-22T05:04:54.974Z,88.00
2018-04-22T05:07:24.818Z,87.00
2018-04-22T05:09:53.112Z,87.00
2018-04-22T05:12:21.470Z,87.40
2018-04-22T05:14:49.760Z,87.90
2018-04-22T05:17:18.093Z,87.00
2018-04-22T05:19:46.370Z,87.00
2018-04-22T05:22:15.462Z,87.90
2018-04-22T05:24:43.788Z,87.90
2018-04-22T05:27:12.121Z,86.20
2018-04-22T05:29:40.421Z,85.60
2018-04-22T05:32:08.761Z,86.10
2018-04-22T05:34:37.049Z,85.10
2018-04-22T05:37:05.378Z,85.00
2018-04-22T05:39:33.677Z,83.60
2018-04-22T05:42:01.962Z,82.30
2018-04-22T05:44:30.292Z,81.10
2018-04-22T05:46:58.961Z,80.50
2018-04-22T05:49:28.068Z,79.10
2018-04-22T05:51:56.352Z,79.10
2018-04-22T05:54:24.884Z,78.70
2018-04-22T05:56:53.282Z,77.60
2018-04-22T05:59:21.584Z,75.90
2018-04-22T06:01:49.909Z,74.40
2018-04-22T06:04:18.244Z,70.40
2018-04-22T06:06:46.529Z,69.70
2018-04-22T06:09:15.185Z,69.30
2018-04-22T06:11:43.473Z,68.00
2018-04-22T06:14:11.762Z,65.30
2018-04-22T06:16:40.119Z,64.30
2018-04-22T06:19:08.396Z,64.50
2018-04-22T06:21:36.733Z,61.50
2018-04-22T06:24:05.073Z,59.60
2018-04-22T06:26:33.399Z,60.50
2018-04-22T06:29:01.805Z,59.00
2018-04-22T06:31:30.097Z,57.50
2018-04-22T06:33:59.465Z,56.10
2018-04-22T06:36:27.744Z,56.10
2018-04-22T06:38:56.078Z,57.90
2018-04-22T06:41:24.360Z,55.90
2018-04-22T06:43:52.705Z,55.50
2018-04-22T06:46:21.780Z,52.10
2018-04-22T06:48:50.113Z,52.10
2018-04-22T06:51:18.397Z,53.20
2018-04-22T06:53:46.732Z,52.90
2018-04-22T06:56:15.029Z,51.30
2018-04-22T06:58:43.390Z,50.90
2018-04-22T07:01:11.716Z,51.50
2018-04-22T07:03:40.449Z,50.80
2018-04-22T07:06:09.501Z,50.30
2018-04-22T07:08:37.808Z,50.20
2018-04-22T07:11:06.908Z,48.60
2018-04-22T07:13:35.180Z,50.20
2018-04-22T07:16:03.468Z,49.70
2018-04-22T07:18:31.806Z,50.60
2018-04-22T07:21:00.089Z,46.70
2018-04-22T07:23:28.777Z,46.20
2018-04-22T07:25:57.074Z,45.50
2018-04-22T07:28:25.478Z,46.90
2018-04-22T07:30:54.593Z,45.80
2018-04-22T07:33:24.240Z,46.40
2018-04-22T07:35:53.688Z,46.40
2018-04-22T07:38:22.050Z,45.90
2018-04-22T07:40:50.421Z,46.40
2018-04-22T07:43:19.473Z,46.10
2018-04-22T07:45:47.809Z,46.10
2018-04-22T07:48:16.851Z,47.00
2018-04-22T07:50:45.204Z,46.90
2018-04-22T07:53:14.253Z,45.30
2018-04-22T07:55:42.537Z,45.30
2018-04-22T07:58:10.861Z,44.40
2018-04-22T08:00:39.193Z,44.30
2018-04-22T08:03:07.545Z,44.40
2018-04-22T08:05:35.880Z,45.40
2018-04-22T08:08:04.209Z,45.20
2018-04-22T08:10:32.489Z,45.40
2018-04-22T08:13:00.903Z,45.20
2018-04-22T08:15:29.228Z,45.30
2018-04-22T08:17:58.312Z,44.60
2018-04-22T08:20:26.705Z,44.70
2018-04-22T08:22:55.192Z,44.60
2018-04-22T08:25:23.850Z,45.10
2018-04-22T08:27:52.205Z,45.20
2018-04-22T08:30:20.562Z,45.80
2018-04-22T08:32:48.842Z,45.90
2018-04-22T08:35:17.175Z,46.00
2018-04-22T08:37:46.221Z,45.40
2018-04-22T08:40:14.553Z,45.30
2018-04-22T08:42:42.948Z,45.80
2018-04-22T08:45:11.309Z,44.40
2018-04-22T08:47:39.757Z,45.60
2018-04-22T08:50:08.417Z,46.20
2018-04-22T08:52:37.465Z,44.70
2018-04-22T08:55:06.017Z,44.80
2018-04-22T08:57:34.609Z,43.60
2018-04-22T09:00:02.908Z,43.30
2018-04-22T09:02:31.184Z,44.40
2018-04-22T09:04:59.577Z,43.10
2018-04-22T09:07:27.908Z,42.90
2018-04-22T09:09:57.090Z,43.50
2018-04-22T09:12:25.492Z,43.50
2018-04-22T09:14:54.192Z,43.10
2018-04-22T09:17:23.323Z,42.70
2018-04-22T09:19:52.395Z,42.70
2018-04-22T09:22:21.605Z,46.00
2018-04-22T09:24:50.980Z,43.70
2018-04-22T09:27:19.306Z,43.60
2018-04-22T09:29:47.589Z,43.90
2018-04-22T09:32:16.186Z,43.90
2018-04-22T09:34:44.575Z,42.90
2018-04-22T09:37:12.853Z,42.70
2018-04-22T09:39:41.208Z,43.00
2018-04-22T09:42:09.501Z,42.00
2018-04-22T09:44:37.842Z,43.40
2018-04-22T09:47:06.167Z,45.00
2018-04-22T09:49:34.422Z,43.40
2018-04-22T09:52:03.397Z,44.50
2018-04-22T09:54:31.673Z,44.80
2018-04-22T09:57:00.005Z,43.60
2018-04-22T09:59:28.345Z,43.60
2018-04-22T10:01:58.531Z,43.80
2018-04-22T10:04:28.637Z,41.80
2018-04-22T10:06:56.924Z,42.10
2018-04-22T10:09:25.257Z,43.60
2018-04-22T10:11:54.593Z,41.80
2018-04-22T10:14:22.964Z,41.70
2018-04-22T10:16:52.989Z,40.80
2018-04-22T10:19:21.504Z,40.70
2018-04-22T10:21:50.555Z,42.90
2018-04-22T10:24:18.905Z,42.90
2018-04-22T10:26:47.255Z,41.10
2018-04-22T10:29:15.544Z,41.80
2018-04-22T10:31:45.383Z,41.70
2018-04-22T10:34:14.484Z,42.20
2018-04-22T10:36:42.814Z,41.90
2018-04-22T10:39:11.173Z,40.70
2018-04-22T10:41:39.869Z,41.00
2018-04-22T10:44:08.245Z,40.70
2018-04-22T10:46:36.536Z,42.40
2018-04-22T10:49:04.868Z,41.10
2018-04-22T10:51:33.236Z,40.60
2018-04-22T10:54:01.557Z,40.60
2018-04-22T10:56:29.847Z,41.10
2018-04-22T10:58:58.124Z,40.00
2018-04-22T11:01:26.453Z,41.70
2018-04-22T11:03:55.263Z,40.30
2018-04-22T11:06:23.568Z,43.30
2018-04-22T11:08:52.459Z,42.40
2018-04-22T11:11:20.784Z,44.60
2018-04-22T11:13:49.132Z,41.80
2018-04-22T11:16:17.412Z,40.50
2018-04-22T11:18:45.746Z,39.60
2018-04-22T11:21:14.797Z,40.90
2018-04-22T11:23:43.076Z,40.90
2018-04-22T11:26:11.420Z,42.20
2018-04-22T11:28:39.701Z,43.10
2018-04-22T11:31:07.981Z,40.90
2018-04-22T11:33:36.319Z,40.90
2018-04-22T11:36:04.605Z,38.90
2018-04-22T11:38:33.653Z,39.40
2018-04-22T11:41:02.180Z,39.40
2018-04-22T11:43:30.460Z,41.00
2018-04-22T11:45:58.744Z,38.90
2018-04-22T11:48:27.082Z,42.50
2018-04-22T11:50:55.391Z,40.80
2018-04-22T11:53:24.124Z,39.00
2018-04-22T11:55:52.562Z,39.80
2018-04-22T11:58:20.942Z,39.50
2018-04-22T12:00:49.993Z,38.70
2018-04-22T12:03:18.277Z,38.60
2018-04-22T12:05:46.611Z,38.00
2018-04-22T12:08:14.889Z,36.80
2018-04-22T12:10:43.174Z,38.50
2018-04-22T12:13:13.017Z,39.00
2018-04-22T12:15:42.121Z,39.80
2018-04-22T12:18:10.416Z,39.80
2018-04-22T12:20:39.491Z,40.50
2018-04-22T12:23:07.832Z,40.50
2018-04-22T12:25:36.160Z,39.30
2018-04-22T12:28:04.881Z,40.30
2018-04-22T12:30:33.177Z,40.10
2018-04-22T12:33:01.457Z,40.80
2018-04-22T12:35:30.053Z,42.20
2018-04-22T12:37:58.351Z,40.80
2018-04-22T12:40:26.741Z,39.90
2018-04-22T12:42:55.092Z,40.20
2018-04-22T12:45:23.422Z,40.90
2018-04-22T12:47:51.770Z,40.50
2018-04-22T12:50:20.102Z,40.00
2018-04-22T12:52:48.424Z,40.90
2018-04-22T12:55:16.867Z,42.20
2018-04-22T12:57:45.189Z,42.00
2018-04-22T13:00:13.557Z,39.00
2018-04-22T13:02:43.485Z,39.80
2018-04-22T13:05:11.816Z,39.90
2018-04-22T13:07:40.109Z,39.70
2018-04-22T13:10:08.461Z,39.10
2018-04-22T13:12:36.848Z,40.70
2018-04-22T13:15:05.124Z,41.90
2018-04-22T13:17:33.456Z,40.40
2018-04-22T13:20:02.517Z,39.10
2018-04-22T13:22:30.835Z,39.10
2018-04-22T13:24:59.962Z,40.20
2018-04-22T13:27:29.669Z,39.30
2018-04-22T13:29:58.082Z,39.10
2018-04-22T13:32:26.464Z,39.60
2018-04-22T13:34:55.522Z,40.40
2018-04-22T13:37:24.051Z,40.40
2018-04-22T13:39:52.436Z,39.40
2018-04-22T13:42:20.788Z,39.70
2018-04-22T13:44:49.070Z,40.90
2018-04-22T13:47:17.490Z,39.90
2018-04-22T13:49:45.765Z,38.80
2018-04-22T13:52:14.330Z,38.20
2018-04-22T13:54:43.708Z,39.50
2018-04-22T13:57:12.049Z,39.50
2018-04-22T13:59:40.341Z,39.00
2018-04-22T14:02:09.051Z,39.10
2018-04-22T14:04:38.066Z,38.20
2018-04-22T14:07:06.341Z,38.20
2018-04-22T14:09:34.993Z,39.60
2018-04-22T14:12:04.185Z,41.10
2018-04-22T14:14:32.470Z,41.10
2018-04-22T14:17:00.814Z,39.50
2018-04-22T14:19:29.093Z,39.90
2018-04-22T14:21:57.421Z,39.90
2018-04-22T14:24:25.762Z,39.70
2018-04-22T14:26:54.871Z,39.40
2018-04-22T14:29:23.925Z,39.20
2018-04-22T14:31:52.219Z,39.10
2018-04-22T14:34:20.694Z,38.40
2018-04-22T14:36:48.977Z,39.20
2018-04-22T14:39:17.304Z,38.60
2018-04-22T14:41:45.901Z,39.50
2018-04-22T14:44:26.069Z,39.70
2018-04-22T14:46:54.396Z,40.30
2018-04-22T14:49:22.697Z,37.70
2018-04-22T14:51:50.987Z,39.00
2018-04-22T14:54:19.425Z,39.40
2018-04-22T14:56:47.729Z,40.10
2018-04-22T14:59:17.670Z,39.40
2018-04-22T15:01:46.725Z,40.00
2018-04-22T15:04:15.148Z,39.70
2018-04-22T15:06:43.475Z,41.30
2018-04-22T15:09:12.581Z,42.10
2018-04-22T15:11:41.680Z,40.50
2018-04-22T15:14:10.725Z,40.50
2018-04-22T15:16:39.009Z,40.50
2018-04-22T15:19:07.344Z,39.70
2018-04-22T15:21:35.716Z,38.80
2018-04-22T15:24:04.054Z,37.80
2018-04-22T15:26:33.168Z,37.70
2018-04-22T15:29:02.701Z,38.50
2018-04-22T15:31:31.084Z,38.50
2018-04-22T15:33:59.410Z,37.90
2018-04-22T15:36:27.748Z,37.80
2018-04-22T15:38:56.804Z,33.30
2018-04-22T15:41:25.132Z,33.30
2018-04-22T15:43:53.436Z,35.70
2018-04-22T15:46:22.521Z,34.60
2018-04-22T15:48:50.900Z,34.60
2018-04-22T15:51:19.229Z,34.30
2018-04-22T15:53:48.277Z,37.40
2018-04-22T15:56:16.612Z,37.40
2018-04-22T15:58:45.708Z,32.60
2018-04-22T16:01:14.084Z,32.60
2018-04-22T16:03:43.177Z,35.60
2018-04-22T16:06:11.573Z,35.60
2018-04-22T16:08:40.153Z,35.90
2018-04-22T16:11:08.444Z,37.40
2018-04-22T16:13:36.793Z,38.00
2018-04-22T16:16:05.865Z,38.60
2018-04-22T16:18:34.249Z,38.60
2018-04-22T16:21:02.540Z,39.60
2018-04-22T16:23:30.873Z,40.20
2018-04-22T16:25:59.225Z,38.80
2018-04-22T16:28:27.624Z,37.90
2018-04-22T16:30:56.009Z,35.40
2018-04-22T16:33:24.393Z,36.50
2018-04-22T16:35:52.778Z,36.90
2018-04-22T16:38:21.057Z,39.50
2018-04-22T16:40:49.669Z,39.80
2018-04-22T16:43:17.972Z,38.30
2018-04-22T16:45:46.388Z,37.90
2018-04-22T16:48:15.904Z,38.00
2018-04-22T16:50:45.133Z,38.50
2018-04-22T16:53:13.786Z,38.50
2018-04-22T16:55:42.192Z,39.90
2018-04-22T16:58:10.640Z,41.60
2018-04-22T17:00:38.990Z,41.60
2018-04-22T17:03:08.134Z,43.90
2018-04-22T17:05:36.905Z,43.70
2018-04-22T17:08:05.945Z,45.10
2018-04-22T17:10:34.393Z,45.00
2018-04-22T17:13:02.801Z,46.10
2018-04-22T17:15:31.093Z,46.90
2018-04-22T17:17:59.377Z,45.90
2018-04-22T17:20:27.705Z,46.40
2018-04-22T17:22:56.039Z,47.30
2018-04-22T17:25:25.181Z,49.70
2018-04-22T17:27:53.465Z,49.70
2018-04-22T17:30:21.761Z,47.60
2018-04-22T17:32:50.338Z,48.20
2018-04-22T17:35:19.401Z,50.80
2018-04-22T17:37:47.765Z,50.80
2018-04-22T17:40:16.189Z,51.10
2018-04-22T17:42:44.531Z,51.80
2018-04-22T17:45:12.869Z,52.30
2018-04-22T17:47:41.227Z,51.80
2018-04-22T17:50:09.689Z,52.80
2018-04-22T17:52:38.786Z,53.40
2018-04-22T17:55:07.088Z,53.40
2018-04-22T17:57:35.448Z,53.80
2018-04-22T18:00:05.241Z,55.20
2018-04-22T18:02:33.652Z,55.20
2018-04-22T18:05:01.933Z,56.30
2018-04-22T18:07:30.560Z,56.40
2018-04-22T18:09:59.616Z,57.80
2018-04-22T18:12:27.943Z,57.50
2018-04-22T18:14:56.273Z,57.60
2018-04-22T18:17:24.552Z,58.80
2018-04-22T18:19:53.660Z,59.80
2018-04-22T18:22:22.714Z,57.70
2018-04-22T18:24:51.084Z,57.60
2018-04-22T18:27:19.369Z,58.80
2018-04-22T18:29:47.696Z,59.70
2018-04-22T18:32:15.976Z,59.60
2018-04-22T18:34:44.308Z,60.10
2018-04-22T18:37:13.360Z,62.40
2018-04-22T18:39:41.789Z,62.40
2018-04-22T18:42:10.200Z,62.30
2018-04-22T18:44:39.394Z,65.80
2018-04-22T18:47:07.676Z,65.80
2018-04-22T18:49:37.507Z,62.60
2018-04-22T18:52:05.817Z,62.50
2018-04-22T18:54:34.918Z,60.30
2018-04-22T18:57:03.201Z,60.30
2018-04-22T18:59:31.667Z,61.20
2018-04-22T19:02:00.861Z,64.20
2018-04-22T19:04:29.205Z,64.10
2018-04-22T19:06:57.553Z,64.70
2018-04-22T19:09:25.845Z,63.70
2018-04-22T19:11:54.184Z,63.60
2018-04-22T19:14:23.277Z,64.80
2018-04-22T19:16:51.957Z,64.80
2018-04-22T19:19:21.781Z,65.50
2018-04-22T19:21:50.061Z,65.50
2018-04-22T19:24:18.660Z,65.60
2018-04-22T19:26:46.946Z,66.40
2018-04-22T19:29:15.240Z,67.60
2018-04-22T19:31:43.645Z,67.90
2018-04-22T19:34:12.038Z,68.10
2018-04-22T19:36:40.374Z,70.80
2018-04-22T19:39:08.654Z,70.90
2018-04-22T19:41:37.004Z,70.70
2018-04-22T19:44:05.388Z,71.00
2018-04-22T19:46:33.720Z,72.10
2018-04-22T19:49:02.005Z,71.80
2018-04-22T19:51:30.333Z,72.60
2018-04-22T19:53:58.621Z,73.20
2018-04-22T19:56:26.949Z,73.10
2018-04-22T19:58:55.236Z,72.50
2018-04-22T20:01:23.584Z,71.60
2018-04-22T20:03:51.910Z,72.00
2018-04-22T20:06:20.493Z,72.50
2018-04-22T20:08:48.776Z,72.70
2018-04-22T20:11:17.064Z,73.90
2018-04-22T20:13:45.405Z,74.50
2018-04-22T20:16:14.511Z,75.10
2018-04-22T20:18:43.893Z,75.20
2018-04-22T20:21:12.199Z,75.20
2018-04-22T20:23:40.512Z,75.30
2018-04-22T20:26:08.871Z,75.50
2018-04-22T20:28:37.196Z,75.70
2018-04-22T20:31:05.533Z,76.00
2018-04-22T20:33:33.817Z,76.30
2018-04-22T20:36:02.149Z,77.90
2018-04-22T20:38:31.197Z,80.80
2018-04-22T20:40:59.529Z,80.80
2018-04-22T20:43:27.837Z,80.80
2018-04-22T20:45:56.929Z,81.70
2018-04-22T20:48:25.613Z,81.70
2018-04-22T20:50:53.998Z,81.70
2018-04-22T20:53:22.280Z,82.00
2018-04-22T20:55:50.608Z,81.90
2018-04-22T20:58:19.996Z,81.90
2018-04-22T21:00:48.272Z,81.80
2018-04-22T21:03:16.560Z,82.60
2018-04-22T21:05:45.184Z,82.20
2018-04-22T21:08:13.468Z,81.40
2018-04-22T21:10:41.766Z,81.60
2018-04-22T21:13:10.113Z,81.80
2018-04-22T21:15:38.413Z,81.50
2018-04-22T21:18:07.026Z,81.50
2018-04-22T21:20:35.304Z,80.60
2018-04-22T21:23:03.601Z,80.60
2018-04-22T21:25:32.000Z,81.00
2018-04-22T21:28:01.101Z,80.80
2018-04-22T21:30:29.385Z,80.70
2018-04-22T21:32:57.988Z,81.10
2018-04-22T21:35:26.267Z,81.50
2018-04-22T21:37:54.551Z,81.90
2018-04-22T21:40:22.957Z,81.00
2018-04-22T21:42:51.289Z,81.30
2018-04-22T21:45:20.333Z,79.40
2018-04-22T21:47:48.612Z,79.40
2018-04-22T21:50:16.940Z,76.40
2018-04-22T21:52:45.222Z,72.90
2018-04-22T21:55:13.565Z,76.60
2018-04-22T21:57:41.866Z,73.60
2018-04-22T22:00:10.237Z,68.00
2018-04-22T22:02:38.598Z,67.00
2018-04-22T22:05:06.879Z,67.10
2018-04-22T22:07:35.169Z,67.00
2018-04-22T22:10:03.865Z,65.40
2018-04-22T22:12:32.149Z,61.70
2018-04-22T22:15:00.429Z,62.40
2018-04-22T22:17:28.957Z,63.00
2018-04-22T22:19:58.012Z,60.70
2018-04-22T22:22:26.294Z,60.70
2018-04-22T22:24:54.720Z,60.30
2018-04-22T22:27:23.294Z,59.90
2018-04-22T22:29:51.573Z,59.50
2018-04-22T22:32:19.892Z,58.90
2018-04-22T22:34:48.224Z,58.70
2018-04-22T22:37:17.277Z,58.90
2018-04-22T22:39:45.893Z,58.90
2018-04-22T22:42:14.285Z,58.90
2018-04-22T22:44:42.673Z,59.20
2018-04-22T22:47:11.013Z,59.30
2018-04-22T22:49:39.387Z,58.90
2018-04-22T22:52:08.435Z,59.40
2018-04-22T22:54:36.765Z,59.40
2018-04-22T22:57:05.095Z,60.00
2018-04-22T22:59:33.421Z,60.80
2018-04-22T23:02:01.787Z,61.40
2018-04-22T23:04:30.122Z,62.60
2018-04-22T23:06:58.457Z,64.80
2018-04-22T23:09:26.899Z,65.70
2018-04-22T23:11:55.228Z,66.10
2018-04-22T23:14:23.556Z,62.40
2018-04-22T23:16:51.837Z,62.80
2018-04-22T23:19:20.174Z,65.20
2018-04-22T23:21:48.505Z,65.30
2018-04-22T23:24:16.840Z,67.50
2018-04-22T23:26:45.143Z,67.40
2018-04-22T23:29:13.433Z,67.20
2018-04-22T23:31:42.545Z,72.40
2018-04-22T23:34:11.661Z,71.60
2018-04-22T23:36:40.775Z,71.40
2018-04-22T23:39:09.197Z,71.40
2018-04-22T23:41:37.518Z,71.70
2018-04-22T23:44:05.904Z,71.90
2018-04-22T23:46:34.190Z,73.50
2018-04-22T23:49:02.528Z,70.00
2018-04-22T23:51:30.814Z,68.70
2018-04-22T23:53:59.860Z,69.60
2018-04-22T23:56:28.186Z,69.60
2018-04-22T23:58:56.465Z,68.50
